createdAt,value
2023-05-16T00:02:27.393Z,10.55
2023-05-16T00:04:54.975Z,11.50
2023-05-16T00:07:23.827Z,11.33
2023-05-16T00:09:51.354Z,11.50
2023-05-16T00:12:19.749Z,10.97
2023-05-16T00:14:47.985Z,11.80
2023-05-16T00:17:17.616Z,12.20
2023-05-16T00:19:47.458Z,11.40
2023-05-16T00:22:15.538Z,11.77
2023-05-16T00:24:44.393Z,11.87
2023-05-16T00:27:11.846Z,11.57
2023-05-16T00:29:39.324Z,12.03
2023-05-16T00:32:08.720Z,11.73
2023-05-16T00:34:36.579Z,11.40
2023-05-16T00:37:04.133Z,11.87
2023-05-16T00:39:32.163Z,12.27
2023-05-16T00:42:01.358Z,11.57
2023-05-16T00:44:28.964Z,11.37
2023-05-16T00:46:56.492Z,10.97
2023-05-16T00:49:24.014Z,10.80
2023-05-16T00:51:51.890Z,10.97
2023-05-16T00:54:21.307Z,11.37
2023-05-16T00:56:48.825Z,11.77
2023-05-16T00:59:17.679Z,10.43
2023-05-16T01:01:47.783Z,11.13
2023-05-16T01:04:15.686Z,10.17
2023-05-16T01:06:43.227Z,11.43
2023-05-16T01:09:12.302Z,11.80
2023-05-16T01:11:47.504Z,11.70
2023-05-16T01:14:22.302Z,11.97
2023-05-16T01:17:00.617Z,12.57
2023-05-16T01:19:45.206Z,12.07
2023-05-16T01:22:21.651Z,12.27
2023-05-16T01:25:03.890Z,11.80
2023-05-16T01:27:34.440Z,11.50
2023-05-16T01:30:02.175Z,12.00
2023-05-16T01:32:29.649Z,11.50
2023-05-16T01:34:57.158Z,12.50
2023-05-16T01:37:34.177Z,13.37
2023-05-16T01:40:10.267Z,12.17
2023-05-16T01:42:46.004Z,13.00
2023-05-16T01:45:18.441Z,13.40
2023-05-16T01:47:53.249Z,11.63
2023-05-16T01:50:24.079Z,12.93
2023-05-16T01:52:57.288Z,12.57
2023-05-16T01:55:33.143Z,14.07
2023-05-16T01:58:03.828Z,13.77
2023-05-16T02:00:31.752Z,13.20
2023-05-16T02:02:59.309Z,14.30
2023-05-16T02:05:27.199Z,13.17
2023-05-16T02:07:55.058Z,13.83
2023-05-16T02:10:22.709Z,12.57
2023-05-16T02:12:51.437Z,13.20
2023-05-16T02:15:20.454Z,12.67
2023-05-16T02:17:48.288Z,12.50
2023-05-16T02:20:15.942Z,12.40
2023-05-16T02:22:44.155Z,12.97
2023-05-16T02:25:11.795Z,13.23
2023-05-16T02:27:39.268Z,12.20
2023-05-16T02:30:08.447Z,12.33
2023-05-16T02:32:37.293Z,12.80
2023-05-16T02:35:05.600Z,12.90
2023-05-16T02:37:33.040Z,12.43
2023-05-16T02:40:00.629Z,12.90
2023-05-16T02:42:28.733Z,12.50
2023-05-16T02:44:56.338Z,12.20
2023-05-16T02:47:23.900Z,12.23
2023-05-16T02:49:52.774Z,12.20
2023-05-16T02:52:20.411Z,12.37
2023-05-16T02:54:56.067Z,12.70
2023-05-16T02:57:35.700Z,12.87
2023-05-16T03:00:06.009Z,12.83
2023-05-16T03:02:33.769Z,12.23
2023-05-16T03:05:02.797Z,12.10
2023-05-16T03:07:30.602Z,12.37
2023-05-16T03:09:58.036Z,12.63
2023-05-16T03:12:25.475Z,12.07
2023-05-16T03:14:52.908Z,12.98
2023-05-16T03:17:20.618Z,12.23
2023-05-16T03:19:48.193Z,12.63
2023-05-16T03:22:17.032Z,12.23
2023-05-16T03:24:44.753Z,12.23
2023-05-16T03:27:12.467Z,11.73
2023-05-16T03:29:39.934Z,11.90
2023-05-16T03:32:07.556Z,12.73
2023-05-16T03:34:35.206Z,12.30
2023-05-16T03:37:02.669Z,12.77
2023-05-16T03:39:31.459Z,12.40
2023-05-16T03:41:58.914Z,13.00
2023-05-16T03:44:26.376Z,13.40
2023-05-16T03:46:55.880Z,12.30
2023-05-16T03:49:28.316Z,11.65
2023-05-16T03:51:55.830Z,13.13
2023-05-16T03:54:23.298Z,12.80
2023-05-16T03:56:52.113Z,12.47
2023-05-16T03:59:19.646Z,13.07
2023-05-16T04:01:47.141Z,13.18
2023-05-16T04:04:15.114Z,12.65
2023-05-16T04:06:42.684Z,14.00
2023-05-16T04:09:10.190Z,13.80
2023-05-16T04:11:38.692Z,14.65
2023-05-16T04:14:07.543Z,14.18
2023-05-16T04:16:35.084Z,17.25
2023-05-16T04:19:04.110Z,15.50
2023-05-16T04:21:31.774Z,14.52
2023-05-16T04:23:59.219Z,15.00
2023-05-16T04:26:27.483Z,14.95
2023-05-16T04:28:54.938Z,16.55
2023-05-16T04:31:24.340Z,15.80
2023-05-16T04:33:52.229Z,15.38
2023-05-16T04:36:19.723Z,14.20
2023-05-16T04:38:47.542Z,14.45
2023-05-16T04:41:15.228Z,15.00
2023-05-16T04:43:43.057Z,13.73
2023-05-16T04:46:10.539Z,14.65
2023-05-16T04:48:39.352Z,15.02
2023-05-16T04:51:06.797Z,14.82
2023-05-16T04:53:34.270Z,14.15
2023-05-16T04:56:02.038Z,13.75
2023-05-16T04:58:29.581Z,13.05
2023-05-16T05:00:57.720Z,12.57
2023-05-16T05:03:25.199Z,12.55
2023-05-16T05:05:54.301Z,12.13
2023-05-16T05:08:22.616Z,13.23
2023-05-16T05:10:50.085Z,12.00
2023-05-16T05:13:17.590Z,12.82
2023-05-16T05:15:45.054Z,13.40
2023-05-16T05:18:12.600Z,13.57
2023-05-16T05:20:40.139Z,14.27
2023-05-16T05:23:08.922Z,13.90
2023-05-16T05:25:37.869Z,13.43
2023-05-16T05:28:05.945Z,14.18
2023-05-16T05:30:33.411Z,13.23
2023-05-16T05:33:01.148Z,12.27
2023-05-16T05:35:28.846Z,12.95
2023-05-16T05:37:56.645Z,13.68
2023-05-16T05:40:25.460Z,12.15
2023-05-16T05:42:53.099Z,9.20
2023-05-16T05:45:20.667Z,8.25
2023-05-16T05:47:48.221Z,7.82
2023-05-16T05:50:16.745Z,6.68
2023-05-16T05:52:44.308Z,5.38
2023-05-16T05:55:11.757Z,5.63
2023-05-16T05:57:40.729Z,5.80
2023-05-16T06:00:09.889Z,5.53
2023-05-16T06:02:37.398Z,5.00
2023-05-16T06:05:05.685Z,5.55
2023-05-16T06:07:33.255Z,4.95
2023-05-16T06:10:05.068Z,5.65
2023-05-16T06:12:33.098Z,5.30
2023-05-16T06:15:01.892Z,5.38
2023-05-16T06:17:29.420Z,5.20
2023-05-16T06:19:56.924Z,5.80
2023-05-16T06:22:24.356Z,4.95
2023-05-16T06:24:51.795Z,6.30
2023-05-16T06:27:19.232Z,5.88
2023-05-16T06:29:46.702Z,6.20
2023-05-16T06:32:15.493Z,5.80
2023-05-16T06:34:43.038Z,5.57
2023-05-16T06:37:10.512Z,5.18
2023-05-16T06:39:37.973Z,5.63
2023-05-16T06:42:05.820Z,5.88
2023-05-16T06:44:33.434Z,6.10
2023-05-16T06:47:00.974Z,5.97
2023-05-16T06:49:29.840Z,6.53
2023-05-16T06:51:57.323Z,6.65
2023-05-16T06:54:24.830Z,6.57
2023-05-16T06:56:52.373Z,5.80
2023-05-16T06:59:19.852Z,6.22
2023-05-16T07:01:47.479Z,6.28
2023-05-16T07:04:15.637Z,6.03
2023-05-16T07:06:44.641Z,5.90
2023-05-16T07:09:12.262Z,6.43
2023-05-16T07:11:39.740Z,6.03
2023-05-16T07:14:07.258Z,4.35
2023-05-16T07:16:34.935Z,6.90
2023-05-16T07:19:02.587Z,6.50
2023-05-16T07:21:30.185Z,6.05
2023-05-16T07:23:59.054Z,6.90
2023-05-16T07:26:26.614Z,6.90
2023-05-16T07:28:54.134Z,7.10
2023-05-16T07:31:21.847Z,6.03
2023-05-16T07:33:52.652Z,6.80
2023-05-16T07:36:20.172Z,6.60
2023-05-16T07:38:47.739Z,6.97
2023-05-16T07:41:16.611Z,6.65
2023-05-16T07:43:44.107Z,7.00
2023-05-16T07:46:12.303Z,6.97
2023-05-16T07:48:39.857Z,7.00
2023-05-16T07:51:07.567Z,6.80
2023-05-16T07:53:35.124Z,6.85
2023-05-16T07:56:02.617Z,6.75
2023-05-16T07:58:31.639Z,7.00
2023-05-16T08:00:59.185Z,7.00
2023-05-16T08:03:27.050Z,6.43
2023-05-16T08:05:54.800Z,7.10
2023-05-16T08:08:22.385Z,6.78
2023-05-16T08:10:49.908Z,7.32
2023-05-16T08:13:17.430Z,7.10
2023-05-16T08:15:46.723Z,7.30
2023-05-16T08:18:16.348Z,6.28
2023-05-16T08:20:44.299Z,7.03
2023-05-16T08:23:11.828Z,6.78
2023-05-16T08:25:39.543Z,7.38
2023-05-16T08:28:07.092Z,6.82
2023-05-16T08:30:34.812Z,6.80
2023-05-16T08:33:05.366Z,7.38
2023-05-16T08:35:33.011Z,6.15
2023-05-16T08:38:00.511Z,5.55
2023-05-16T08:40:29.107Z,6.57
2023-05-16T08:42:57.114Z,6.43
2023-05-16T08:45:25.183Z,6.43
2023-05-16T08:47:56.240Z,6.28
2023-05-16T08:50:25.691Z,7.10
2023-05-16T08:52:54.488Z,5.90
2023-05-16T08:55:23.169Z,6.13
2023-05-16T08:57:51.977Z,6.00
2023-05-16T09:00:20.508Z,6.05
2023-05-16T09:02:48.377Z,5.47
2023-05-16T09:05:17.151Z,5.80
2023-05-16T09:07:46.703Z,6.15
2023-05-16T09:10:14.567Z,5.65
2023-05-16T09:12:43.410Z,5.43
2023-05-16T09:15:11.668Z,5.20
2023-05-16T09:17:43.518Z,6.03
2023-05-16T09:20:14.002Z,5.93
2023-05-16T09:22:50.650Z,5.53
2023-05-16T09:25:29.493Z,5.20
2023-05-16T09:28:00.251Z,6.30
2023-05-16T09:30:30.464Z,6.10
2023-05-16T09:32:59.039Z,6.72
2023-05-16T09:35:43.181Z,6.00
2023-05-16T09:38:15.688Z,5.80
2023-05-16T09:40:45.583Z,5.97
2023-05-16T09:43:16.833Z,5.70
2023-05-16T09:45:47.610Z,6.25
2023-05-16T09:48:16.788Z,6.10
2023-05-16T09:50:49.744Z,5.82
2023-05-16T09:53:17.262Z,5.32
2023-05-16T09:55:46.224Z,5.00
2023-05-16T09:58:18.260Z,5.60
2023-05-16T10:00:46.990Z,5.70
2023-05-16T10:03:16.061Z,5.30
2023-05-16T10:05:44.032Z,5.40
2023-05-16T10:08:12.360Z,4.85
2023-05-16T10:10:40.712Z,6.22
2023-05-16T10:13:11.333Z,5.47
2023-05-16T10:15:39.450Z,4.95
2023-05-16T10:18:12.558Z,5.75
2023-05-16T10:20:42.541Z,5.63
2023-05-16T10:23:13.039Z,5.00
2023-05-16T10:25:44.277Z,5.07
2023-05-16T10:28:13.902Z,4.82
2023-05-16T10:30:43.997Z,5.47
2023-05-16T10:33:13.914Z,5.60
2023-05-16T10:35:41.878Z,5.93
2023-05-16T10:38:12.036Z,5.55
2023-05-16T10:40:41.139Z,5.68
2023-05-16T10:43:09.974Z,5.43
2023-05-16T10:45:42.855Z,5.28
2023-05-16T10:48:13.432Z,4.97
2023-05-16T10:50:43.564Z,5.40
2023-05-16T10:53:22.033Z,6.07
2023-05-16T10:56:11.020Z,6.18
2023-05-16T10:58:45.973Z,5.80
2023-05-16T11:01:19.604Z,4.80
2023-05-16T11:04:11.048Z,6.18
2023-05-16T11:06:51.590Z,5.55
2023-05-16T11:09:22.245Z,5.93
2023-05-16T11:11:57.300Z,5.20
2023-05-16T11:14:26.910Z,5.60
2023-05-16T11:17:02.892Z,5.22
2023-05-16T11:19:36.653Z,5.18
2023-05-16T11:22:14.988Z,5.20
2023-05-16T11:24:51.053Z,5.30
2023-05-16T11:27:23.875Z,5.45
2023-05-16T11:29:51.983Z,5.45
2023-05-16T11:32:24.820Z,5.18
2023-05-16T11:34:54.451Z,4.95
2023-05-16T11:37:22.905Z,4.65
2023-05-16T11:39:53.001Z,5.28
2023-05-16T11:42:20.757Z,5.85
2023-05-16T11:44:48.238Z,5.20
2023-05-16T11:47:15.777Z,4.95
2023-05-16T11:49:44.718Z,5.20
2023-05-16T11:52:12.273Z,4.88
2023-05-16T11:54:42.347Z,4.97
2023-05-16T11:57:10.133Z,4.70
2023-05-16T11:59:38.210Z,4.85
2023-05-16T12:02:06.892Z,5.20
2023-05-16T12:04:34.599Z,4.32
2023-05-16T12:07:04.072Z,5.00
2023-05-16T12:09:31.601Z,4.97
2023-05-16T12:11:59.318Z,4.72
2023-05-16T12:14:27.577Z,5.13
2023-05-16T12:16:55.670Z,4.32
2023-05-16T12:19:23.608Z,4.70
2023-05-16T12:21:54.227Z,6.10
2023-05-16T12:24:23.107Z,6.20
2023-05-16T12:26:50.787Z,5.72
2023-05-16T12:29:18.418Z,5.60
2023-05-16T12:31:45.991Z,6.10
2023-05-16T12:34:17.912Z,6.95
2023-05-16T12:36:45.541Z,8.07
2023-05-16T12:39:15.277Z,7.80
2023-05-16T12:41:44.407Z,8.15
2023-05-16T12:44:14.428Z,8.20
2023-05-16T12:46:43.130Z,8.57
2023-05-16T12:49:11.039Z,9.55
2023-05-16T12:51:38.725Z,9.27
2023-05-16T12:54:11.554Z,9.43
2023-05-16T12:56:40.017Z,10.18
2023-05-16T12:59:09.305Z,10.80
2023-05-16T13:01:37.528Z,10.90
2023-05-16T13:04:05.961Z,10.82
2023-05-16T13:06:48.999Z,11.85
2023-05-16T13:09:21.185Z,11.13
2023-05-16T13:11:48.831Z,11.02
2023-05-16T13:14:18.305Z,9.60
2023-05-16T13:16:45.885Z,8.85
2023-05-16T13:19:13.497Z,8.63
2023-05-16T13:21:41.053Z,8.00
2023-05-16T13:24:08.650Z,8.95
2023-05-16T13:26:36.182Z,7.63
2023-05-16T13:29:03.667Z,8.18
2023-05-16T13:31:32.562Z,8.02
2023-05-16T13:34:00.092Z,7.95
2023-05-16T13:36:29.838Z,8.23
2023-05-16T13:39:02.768Z,7.57
2023-05-16T13:41:30.263Z,8.05
2023-05-16T13:43:57.775Z,7.70
2023-05-16T13:46:25.580Z,6.57
2023-05-16T13:48:54.444Z,7.25
2023-05-16T13:51:22.032Z,7.45
2023-05-16T13:53:49.515Z,5.82
2023-05-16T13:56:17.093Z,6.78
2023-05-16T13:58:59.688Z,5.32
2023-05-16T14:01:28.190Z,6.22
2023-05-16T14:03:57.341Z,5.43
2023-05-16T14:06:24.946Z,5.55
2023-05-16T14:08:52.433Z,5.10
2023-05-16T14:11:22.974Z,4.43
2023-05-16T14:13:50.464Z,5.50
2023-05-16T14:16:17.983Z,5.70
2023-05-16T14:18:45.541Z,5.22
2023-05-16T14:21:14.472Z,5.05
2023-05-16T14:23:42.336Z,5.30
2023-05-16T14:26:09.840Z,5.30
2023-05-16T14:28:37.309Z,5.32
2023-05-16T14:31:04.847Z,4.82
2023-05-16T14:33:32.955Z,5.05
2023-05-16T14:36:00.764Z,4.82
2023-05-16T14:38:29.637Z,5.68
2023-05-16T14:40:57.146Z,4.50
2023-05-16T14:43:24.632Z,5.22
2023-05-16T14:45:52.168Z,6.25
2023-05-16T14:48:19.749Z,7.00
2023-05-16T14:50:49.391Z,7.10
2023-05-16T14:53:17.034Z,6.88
2023-05-16T14:55:45.851Z,7.38
2023-05-16T14:58:13.364Z,6.80
2023-05-16T15:00:40.894Z,6.57
2023-05-16T15:03:08.494Z,6.75
2023-05-16T15:05:36.038Z,7.05
2023-05-16T15:08:03.564Z,7.25
2023-05-16T15:10:31.085Z,7.10
2023-05-16T15:12:59.915Z,7.10
2023-05-16T15:15:27.479Z,6.63
2023-05-16T15:17:55.153Z,6.10
2023-05-16T15:20:23.394Z,6.47
2023-05-16T15:22:50.900Z,6.45
2023-05-16T15:25:18.617Z,6.72
2023-05-16T15:27:46.113Z,5.90
2023-05-16T15:30:15.646Z,6.38
2023-05-16T15:32:43.160Z,5.40
2023-05-16T15:35:11.341Z,5.40
2023-05-16T15:37:38.954Z,5.93
2023-05-16T15:40:08.906Z,5.32
2023-05-16T15:42:36.405Z,5.82
2023-05-16T15:45:04.295Z,5.32
2023-05-16T15:47:33.316Z,5.93
2023-05-16T15:50:00.915Z,4.45
2023-05-16T15:52:28.436Z,4.80
2023-05-16T15:54:55.964Z,4.40
2023-05-16T15:57:24.321Z,4.50
2023-05-16T15:59:51.818Z,8.07
2023-05-16T16:02:19.332Z,4.65
2023-05-16T16:04:49.117Z,4.60
2023-05-16T16:07:16.651Z,4.80
2023-05-16T16:09:45.430Z,3.75
2023-05-16T16:12:12.949Z,3.63
2023-05-16T16:14:41.235Z,3.38
2023-05-16T16:17:08.786Z,3.38
2023-05-16T16:19:36.709Z,4.18
2023-05-16T16:22:06.377Z,3.63
2023-05-16T16:24:34.438Z,3.65
2023-05-16T16:27:01.939Z,3.53
2023-05-16T16:29:29.486Z,3.08
2023-05-16T16:31:57.219Z,3.65
2023-05-16T16:34:24.835Z,3.70
2023-05-16T16:36:52.335Z,3.85
2023-05-16T16:39:21.207Z,4.18
2023-05-16T16:41:48.759Z,3.38
2023-05-16T16:44:16.256Z,3.67
2023-05-16T16:46:43.883Z,4.28
2023-05-16T16:49:11.539Z,3.83
2023-05-16T16:51:39.071Z,2.92
2023-05-16T16:54:06.611Z,3.15
2023-05-16T16:56:36.133Z,3.33
2023-05-16T16:59:04.678Z,3.38
2023-05-16T17:01:32.724Z,3.40
2023-05-16T17:04:00.713Z,3.30
2023-05-16T17:06:29.780Z,3.60
2023-05-16T17:08:57.374Z,3.85
2023-05-16T17:11:25.025Z,3.50
2023-05-16T17:13:59.066Z,3.92
2023-05-16T17:16:27.648Z,6.65
2023-05-16T17:18:55.198Z,4.00
2023-05-16T17:21:22.850Z,3.17
2023-05-16T17:23:51.389Z,4.22
2023-05-16T17:26:18.885Z,5.10
2023-05-16T17:28:46.786Z,6.88
2023-05-16T17:31:15.790Z,3.80
2023-05-16T17:33:43.427Z,3.97
2023-05-16T17:36:11.236Z,4.15
2023-05-16T17:38:38.839Z,4.10
2023-05-16T17:41:06.350Z,2.92
2023-05-16T17:43:33.867Z,5.20
2023-05-16T17:46:01.445Z,3.33
2023-05-16T17:48:30.657Z,3.22
2023-05-16T17:50:58.615Z,6.30
2023-05-16T17:53:26.675Z,3.20
2023-05-16T17:55:54.202Z,3.40
2023-05-16T17:58:21.712Z,2.88
2023-05-16T18:00:49.395Z,2.33
2023-05-16T18:03:17.555Z,3.30
2023-05-16T18:05:46.596Z,3.17
2023-05-16T18:08:14.131Z,3.20
2023-05-16T18:10:51.626Z,3.22
2023-05-16T18:13:19.997Z,3.03
2023-05-16T18:15:47.703Z,2.75
2023-05-16T18:18:15.382Z,2.88
2023-05-16T18:20:44.018Z,3.20
2023-05-16T18:23:12.998Z,3.00
2023-05-16T18:25:40.477Z,2.63
2023-05-16T18:28:07.993Z,3.75
2023-05-16T18:30:37.810Z,4.70
2023-05-16T18:33:06.441Z,3.00
2023-05-16T18:35:34.065Z,3.20
2023-05-16T18:38:03.720Z,2.60
2023-05-16T18:40:32.968Z,5.18
2023-05-16T18:43:00.517Z,2.50
2023-05-16T18:45:29.827Z,3.72
2023-05-16T18:47:57.682Z,2.70
2023-05-16T18:50:25.975Z,2.88
2023-05-16T18:52:57.294Z,2.67
2023-05-16T18:55:24.917Z,2.20
2023-05-16T18:57:53.980Z,2.40
2023-05-16T19:00:21.643Z,2.20
2023-05-16T19:02:49.346Z,2.30
2023-05-16T19:05:17.027Z,2.13
2023-05-16T19:07:44.588Z,2.13
2023-05-16T19:10:12.766Z,2.58
2023-05-16T19:12:40.299Z,2.30
2023-05-16T19:15:11.308Z,2.33
2023-05-16T19:17:41.495Z,2.65
2023-05-16T19:20:10.886Z,2.60
2023-05-16T19:22:38.875Z,2.35
2023-05-16T19:25:07.611Z,2.35
2023-05-16T19:27:35.677Z,1.90
2023-05-16T19:30:03.181Z,2.55
2023-05-16T19:32:32.117Z,2.40
2023-05-16T19:34:59.779Z,2.10
2023-05-16T19:37:27.482Z,2.35
2023-05-16T19:39:55.012Z,2.05
2023-05-16T19:42:22.574Z,2.13
2023-05-16T19:44:50.112Z,2.45
2023-05-16T19:47:17.645Z,2.15
2023-05-16T19:49:46.548Z,2.20
2023-05-16T19:52:14.563Z,2.65
2023-05-16T19:54:44.364Z,2.55
2023-05-16T19:57:11.979Z,2.78
2023-05-16T19:59:39.503Z,2.13
2023-05-16T20:02:07.077Z,2.80
2023-05-16T20:04:34.637Z,2.70
2023-05-16T20:07:03.510Z,2.53
2023-05-16T20:09:31.147Z,2.85
2023-05-16T20:11:58.846Z,2.55
2023-05-16T20:14:27.604Z,2.30
2023-05-16T20:16:55.125Z,2.53
2023-05-16T20:19:23.770Z,2.60
2023-05-16T20:21:51.418Z,2.85
2023-05-16T20:24:20.309Z,2.60
2023-05-16T20:26:47.818Z,2.47
2023-05-16T20:29:15.461Z,2.67
2023-05-16T20:31:43.721Z,3.00
2023-05-16T20:34:11.581Z,2.88
2023-05-16T20:36:39.156Z,2.70
2023-05-16T20:39:08.899Z,2.63
2023-05-16T20:41:37.733Z,2.40
2023-05-16T20:44:06.654Z,2.70
2023-05-16T20:46:34.314Z,2.53
2023-05-16T20:49:01.937Z,2.42
2023-05-16T20:51:29.480Z,2.40
2023-05-16T20:53:56.977Z,3.55
2023-05-16T20:56:24.566Z,2.50
2023-05-16T20:58:53.379Z,2.63
2023-05-16T21:01:21.024Z,2.60
2023-05-16T21:03:48.550Z,2.50
2023-05-16T21:06:16.074Z,2.20
2023-05-16T21:08:43.672Z,2.63
2023-05-16T21:11:11.188Z,2.40
2023-05-16T21:13:38.675Z,2.22
2023-05-16T21:16:08.178Z,2.65
2023-05-16T21:18:35.814Z,2.20
2023-05-16T21:21:03.362Z,2.15
2023-05-16T21:23:30.877Z,2.20
2023-05-16T21:25:58.412Z,2.60
2023-05-16T21:28:26.088Z,2.53
2023-05-16T21:30:54.245Z,2.50
2023-05-16T21:33:23.172Z,2.97
2023-05-16T21:35:52.469Z,2.45
2023-05-16T21:38:20.021Z,2.47
2023-05-16T21:40:47.770Z,2.08
2023-05-16T21:43:15.304Z,2.28
2023-05-16T21:45:43.026Z,2.33
2023-05-16T21:48:10.654Z,2.60
2023-05-16T21:50:39.575Z,2.70
2023-05-16T21:53:07.137Z,2.30
2023-05-16T21:55:34.621Z,2.10
2023-05-16T21:58:02.191Z,2.47
2023-05-16T22:00:29.665Z,2.40
2023-05-16T22:02:57.304Z,1.98
2023-05-16T22:05:25.057Z,2.42
2023-05-16T22:07:53.920Z,2.63
2023-05-16T22:10:21.436Z,2.20
2023-05-16T22:12:48.950Z,2.60
2023-05-16T22:15:16.455Z,2.10
2023-05-16T22:17:44.020Z,2.10
2023-05-16T22:20:12.198Z,2.33
2023-05-16T22:22:39.800Z,2.10
2023-05-16T22:25:09.512Z,2.00
2023-05-16T22:27:37.127Z,2.40
2023-05-16T22:30:06.075Z,2.20
2023-05-16T22:32:33.682Z,2.30
2023-05-16T22:35:01.202Z,2.20
2023-05-16T22:37:28.774Z,2.20
2023-05-16T22:39:57.021Z,2.30
2023-05-16T22:42:25.891Z,2.57
2023-05-16T22:44:53.433Z,1.90
2023-05-16T22:47:20.921Z,2.20
2023-05-16T22:49:48.478Z,2.13
2023-05-16T22:52:15.970Z,2.10
2023-05-16T22:54:43.434Z,2.15
2023-05-16T22:57:11.081Z,2.60
2023-05-16T22:59:39.970Z,1.98
2023-05-16T23:02:07.511Z,2.35
2023-05-16T23:04:35.029Z,2.20
2023-05-16T23:07:03.288Z,2.30
2023-05-16T23:09:30.838Z,2.25
2023-05-16T23:11:58.491Z,2.20
2023-05-16T23:14:25.999Z,2.20
2023-05-16T23:16:54.882Z,2.10
2023-05-16T23:19:22.563Z,2.13
2023-05-16T23:21:50.233Z,4.07
2023-05-16T23:24:17.766Z,2.20
2023-05-16T23:26:45.279Z,1.90
2023-05-16T23:29:12.822Z,2.47
2023-05-16T23:31:40.331Z,2.40
2023-05-16T23:34:09.338Z,2.37
2023-05-16T23:36:36.926Z,4.13
2023-05-16T23:39:04.601Z,2.20
2023-05-16T23:41:32.113Z,3.37
2023-05-16T23:43:59.581Z,2.50
2023-05-16T23:46:27.074Z,2.27
2023-05-16T23:48:56.823Z,2.40
2023-05-16T23:51:25.786Z,3.27
2023-05-16T23:53:53.327Z,2.70
2023-05-16T23:56:20.808Z,2.60
2023-05-16T23:58:49.131Z,2.83
